createdAt,value
2023-01-29T00:01:10.618Z,21.42
2023-01-29T00:03:40.022Z,19.73
2023-01-29T00:06:34.089Z,19.20
2023-01-29T00:09:15.772Z,24.02
2023-01-29T00:11:47.102Z,22.75
2023-01-29T00:14:15.848Z,22.80
2023-01-29T00:16:46.374Z,22.80
2023-01-29T00:19:18.629Z,24.35
2023-01-29T00:21:46.716Z,22.80
2023-01-29T00:24:15.680Z,22.55
2023-01-29T00:26:43.697Z,22.13
2023-01-29T00:29:14.052Z,21.80
2023-01-29T00:31:48.670Z,23.05
2023-01-29T00:34:18.603Z,22.00
2023-01-29T00:36:48.901Z,23.50
2023-01-29T00:39:17.160Z,26.85
2023-01-29T00:42:07.506Z,22.92
2023-01-29T00:44:55.646Z,22.45
2023-01-29T00:47:33.262Z,21.35
2023-01-29T00:50:05.234Z,22.80
2023-01-29T00:52:33.321Z,24.05
2023-01-29T00:55:02.437Z,23.63
2023-01-29T00:57:41.650Z,22.58
2023-01-29T01:00:19.530Z,23.02
2023-01-29T01:03:06.928Z,21.20
2023-01-29T01:05:37.270Z,20.52
2023-01-29T01:08:27.928Z,19.90
2023-01-29T01:11:06.203Z,20.70
2023-01-29T01:13:43.232Z,21.65
2023-01-29T01:16:16.539Z,23.20
2023-01-29T01:18:46.109Z,21.73
2023-01-29T01:21:14.642Z,22.80
2023-01-29T01:23:43.903Z,21.77
2023-01-29T01:26:20.531Z,22.63
2023-01-29T01:28:48.784Z,23.33
2023-01-29T01:31:18.890Z,20.52
2023-01-29T01:34:01.110Z,23.05
2023-01-29T01:36:32.418Z,20.48
2023-01-29T01:39:00.492Z,20.95
2023-01-29T01:41:37.792Z,22.33
2023-01-29T01:46:38.187Z,19.95
2023-01-29T01:49:26.353Z,22.00
2023-01-29T01:51:55.181Z,22.35
2023-01-29T01:54:30.385Z,19.55
2023-01-29T01:57:16.067Z,21.63
2023-01-29T02:00:16.730Z,21.55
2023-01-29T02:03:07.667Z,22.42
2023-01-29T02:05:55.845Z,20.92
2023-01-29T02:09:22.776Z,21.17
2023-01-29T02:14:25.650Z,19.95
2023-01-29T02:16:53.835Z,22.27
2023-01-29T02:19:58.300Z,21.92
2023-01-29T02:22:59.348Z,17.80
2023-01-29T02:25:30.839Z,17.80
2023-01-29T02:28:24.818Z,18.90
2023-01-29T02:31:19.717Z,19.17
2023-01-29T02:34:11.422Z,20.67
2023-01-29T02:36:48.237Z,17.77
2023-01-29T02:39:39.774Z,19.10
2023-01-29T02:42:37.282Z,18.33
2023-01-29T02:45:29.471Z,19.88
2023-01-29T02:48:01.221Z,14.52
2023-01-29T02:50:54.564Z,17.45
2023-01-29T02:53:40.978Z,20.27
2023-01-29T02:57:05.696Z,17.38
2023-01-29T02:59:44.231Z,17.40
2023-01-29T03:02:22.142Z,18.92
2023-01-29T03:05:01.014Z,19.77
2023-01-29T03:07:48.343Z,20.35
2023-01-29T03:10:46.709Z,18.88
2023-01-29T03:13:44.814Z,19.38
2023-01-29T03:16:44.374Z,19.52
2023-01-29T03:19:36.543Z,20.10
2023-01-29T03:22:12.478Z,17.75
2023-01-29T03:25:20.837Z,19.27
2023-01-29T03:28:15.731Z,18.83
2023-01-29T03:31:09.734Z,19.15
2023-01-29T03:33:58.532Z,18.48
2023-01-29T03:36:39.803Z,19.48
2023-01-29T03:39:09.648Z,20.42
2023-01-29T03:42:12.906Z,19.25
2023-01-29T03:45:05.473Z,22.20
2023-01-29T03:48:16.885Z,18.75
2023-01-29T03:51:21.693Z,18.83
2023-01-29T03:54:09.130Z,20.33
2023-01-29T03:56:57.803Z,21.15
2023-01-29T03:59:57.710Z,20.08
2023-01-29T04:02:58.982Z,19.75
2023-01-29T04:05:33.461Z,18.98
2023-01-29T04:08:25.960Z,20.33
2023-01-29T04:16:21.241Z,21.33
2023-01-29T04:19:09.673Z,19.77
2023-01-29T04:21:49.275Z,23.50
2023-01-29T04:24:18.293Z,21.85
2023-01-29T04:27:31.294Z,23.60
2023-01-29T04:30:35.842Z,21.10
2023-01-29T04:33:19.277Z,22.45
2023-01-29T04:36:01.223Z,20.52
2023-01-29T04:38:55.454Z,20.38
2023-01-29T04:41:57.122Z,23.13
2023-01-29T04:45:05.600Z,22.20
2023-01-29T04:47:39.203Z,21.77
2023-01-29T04:50:33.061Z,22.30
2023-01-29T04:53:26.145Z,23.50
2023-01-29T04:56:26.320Z,22.50
2023-01-29T04:59:45.834Z,23.23
2023-01-29T05:02:15.179Z,24.52
2023-01-29T05:04:46.954Z,24.95
2023-01-29T05:07:18.454Z,23.50
2023-01-29T05:09:51.710Z,24.27
2023-01-29T05:12:19.751Z,24.73
2023-01-29T05:14:49.802Z,24.40
2023-01-29T05:17:20.568Z,22.70
2023-01-29T05:19:52.074Z,24.33
2023-01-29T05:22:26.761Z,27.17
2023-01-29T05:25:04.790Z,23.55
2023-01-29T05:27:54.496Z,24.20
2023-01-29T05:30:22.800Z,25.25
2023-01-29T05:32:50.568Z,26.70
2023-01-29T05:35:18.402Z,26.08
2023-01-29T05:37:47.480Z,25.10
2023-01-29T05:40:17.068Z,27.95
2023-01-29T05:42:46.331Z,23.77
2023-01-29T05:45:14.255Z,26.70
2023-01-29T05:47:50.319Z,24.15
2023-01-29T05:50:19.514Z,24.98
2023-01-29T05:52:58.292Z,26.38
2023-01-29T05:55:27.046Z,28.95
2023-01-29T05:57:57.164Z,25.27
2023-01-29T06:00:25.750Z,24.90
2023-01-29T06:02:54.270Z,28.05
2023-01-29T06:05:25.896Z,26.23
2023-01-29T06:07:58.050Z,25.60
2023-01-29T06:10:25.657Z,27.25
2023-01-29T06:12:55.060Z,26.27
2023-01-29T06:15:26.859Z,25.60
2023-01-29T06:18:07.147Z,25.52
2023-01-29T06:20:35.003Z,26.50
2023-01-29T06:23:04.882Z,27.15
2023-01-29T06:25:34.972Z,27.63
2023-01-29T06:28:13.218Z,28.93
2023-01-29T06:30:45.954Z,29.10
2023-01-29T06:33:18.480Z,29.10
2023-01-29T06:35:55.527Z,26.50
2023-01-29T06:38:29.579Z,25.98
2023-01-29T06:40:59.114Z,26.50
2023-01-29T06:43:42.852Z,28.38
2023-01-29T06:46:13.246Z,26.80
2023-01-29T06:48:47.114Z,27.27
2023-01-29T06:51:17.242Z,26.77
2023-01-29T06:53:47.176Z,28.13
2023-01-29T06:56:18.220Z,26.85
2023-01-29T06:58:52.187Z,30.73
2023-01-29T07:01:36.154Z,31.10
2023-01-29T07:04:04.684Z,29.27
2023-01-29T07:06:40.397Z,27.88
2023-01-29T07:09:11.710Z,25.55
2023-01-29T07:11:39.831Z,28.17
2023-01-29T07:14:10.474Z,30.60
2023-01-29T07:16:39.210Z,27.15
2023-01-29T07:19:18.696Z,29.63
2023-01-29T07:21:46.455Z,28.90
2023-01-29T07:24:14.890Z,29.65
2023-01-29T07:26:44.844Z,29.27
2023-01-29T07:29:15.334Z,30.02
2023-01-29T07:31:45.337Z,28.48
2023-01-29T07:34:14.284Z,26.63
2023-01-29T07:36:42.493Z,26.92
2023-01-29T07:39:11.886Z,28.42
2023-01-29T07:41:40.143Z,27.80
2023-01-29T07:44:21.527Z,25.48
2023-01-29T07:46:58.949Z,28.85
2023-01-29T07:49:29.440Z,29.85
2023-01-29T07:52:04.777Z,27.63
2023-01-29T07:54:36.510Z,29.10
2023-01-29T07:57:05.229Z,29.60
2023-01-29T07:59:32.930Z,29.02
2023-01-29T08:02:01.018Z,28.17
2023-01-29T08:04:32.396Z,31.15
2023-01-29T08:07:01.774Z,29.63
2023-01-29T08:09:33.019Z,29.75
2023-01-29T08:12:07.325Z,28.40
2023-01-29T08:14:37.289Z,28.30
2023-01-29T08:17:08.613Z,28.60
2023-01-29T08:19:46.001Z,27.30
2023-01-29T08:22:17.099Z,28.63
2023-01-29T08:24:53.743Z,27.83
2023-01-29T08:27:30.969Z,29.08
2023-01-29T08:29:59.679Z,29.80
2023-01-29T08:32:36.530Z,26.98
2023-01-29T08:35:04.678Z,31.08
2023-01-29T08:37:35.643Z,29.65
2023-01-29T08:40:04.965Z,27.48
2023-01-29T08:42:34.367Z,27.90
2023-01-29T08:45:02.419Z,28.38
2023-01-29T08:47:31.056Z,29.08
2023-01-29T08:49:58.824Z,26.20
2023-01-29T08:52:35.828Z,26.02
2023-01-29T08:55:08.433Z,26.52
2023-01-29T08:57:42.599Z,29.38
2023-01-29T09:00:12.667Z,27.35
2023-01-29T09:02:43.173Z,25.98
2023-01-29T09:05:14.688Z,25.30
2023-01-29T09:07:42.589Z,26.15
2023-01-29T09:10:14.668Z,25.67
2023-01-29T09:12:44.169Z,29.30
2023-01-29T09:15:15.464Z,26.73
2023-01-29T09:17:45.937Z,26.25
2023-01-29T09:20:13.863Z,26.27
2023-01-29T09:23:05.352Z,29.52
2023-01-29T09:28:54.709Z,26.63
2023-01-29T09:31:32.255Z,28.80
2023-01-29T09:34:11.040Z,26.13
2023-01-29T09:36:38.795Z,24.77
2023-01-29T09:39:07.990Z,26.83
2023-01-29T09:42:27.122Z,25.60
2023-01-29T09:45:06.180Z,26.60
2023-01-29T09:47:43.442Z,24.88
2023-01-29T09:50:24.697Z,24.05
2023-01-29T09:53:30.328Z,24.90
2023-01-29T09:56:09.812Z,24.07
2023-01-29T09:58:45.299Z,26.15
2023-01-29T10:02:00.782Z,23.30
2023-01-29T10:04:48.209Z,23.15
2023-01-29T10:07:50.377Z,23.63
2023-01-29T10:10:44.378Z,23.40
2023-01-29T10:17:38.121Z,21.80
2023-01-29T10:21:15.756Z,24.17
2023-01-29T10:24:18.061Z,20.55
2023-01-29T10:26:58.769Z,19.63
2023-01-29T10:29:37.371Z,23.38
2023-01-29T10:32:18.091Z,25.02
2023-01-29T10:35:02.918Z,20.98
2023-01-29T10:37:44.302Z,22.25
2023-01-29T10:40:41.733Z,23.60
2023-01-29T10:47:06.812Z,20.23
2023-01-29T10:50:28.771Z,19.77
2023-01-29T10:53:26.241Z,20.90
2023-01-29T10:56:39.578Z,21.17
2023-01-29T10:59:49.624Z,21.35
2023-01-29T11:02:21.883Z,23.63
2023-01-29T11:05:34.579Z,20.77
2023-01-29T11:08:24.451Z,21.40
2023-01-29T11:11:04.188Z,24.50
2023-01-29T11:14:04.343Z,19.95
2023-01-29T11:16:41.004Z,20.17
2023-01-29T11:19:37.102Z,20.85
2023-01-29T11:22:35.527Z,21.52
2023-01-29T11:25:21.166Z,20.05
2023-01-29T11:28:16.963Z,24.33
2023-01-29T11:31:18.898Z,20.55
2023-01-29T11:34:22.497Z,20.58
2023-01-29T11:37:18.220Z,21.52
2023-01-29T11:42:43.263Z,17.95
2023-01-29T11:48:03.451Z,18.27
2023-01-29T11:50:37.323Z,21.48
2023-01-29T11:53:26.244Z,18.40
2023-01-29T11:56:05.321Z,21.98
2023-01-29T11:58:36.813Z,20.63
2023-01-29T12:03:56.287Z,18.38
2023-01-29T12:06:41.130Z,19.27
2023-01-29T12:12:52.000Z,21.15
2023-01-29T12:15:25.479Z,21.38
2023-01-29T12:18:13.207Z,19.80
2023-01-29T12:21:13.677Z,19.80
2023-01-29T12:24:10.820Z,21.23
2023-01-29T12:26:56.915Z,20.20
2023-01-29T12:29:39.899Z,22.75
2023-01-29T12:32:15.175Z,22.05
2023-01-29T12:38:47.196Z,21.10
2023-01-29T12:41:45.929Z,20.23
2023-01-29T12:44:29.925Z,21.83
2023-01-29T12:47:03.443Z,22.10
2023-01-29T12:49:43.156Z,22.65
2023-01-29T12:53:07.153Z,19.35
2023-01-29T12:56:03.480Z,19.33
2023-01-29T12:58:52.108Z,22.17
2023-01-29T13:01:37.556Z,19.63
2023-01-29T13:04:46.480Z,22.70
2023-01-29T13:11:21.156Z,24.77
2023-01-29T13:14:11.213Z,21.75
2023-01-29T13:16:55.189Z,20.77
2023-01-29T13:19:44.501Z,24.77
2023-01-29T13:26:02.459Z,27.60
2023-01-29T13:28:35.475Z,22.50
2023-01-29T13:31:35.877Z,23.85
2023-01-29T13:34:24.478Z,23.23
2023-01-29T13:37:20.576Z,24.83
2023-01-29T13:40:04.491Z,27.05
2023-01-29T13:42:53.400Z,26.63
2023-01-29T13:49:02.340Z,27.90
2023-01-29T13:52:26.569Z,28.67
2023-01-29T13:55:43.396Z,27.63
2023-01-29T13:58:44.411Z,28.42
2023-01-29T14:04:41.206Z,29.35
2023-01-29T14:07:47.917Z,29.35
2023-01-29T14:10:41.937Z,30.13
2023-01-29T14:13:27.704Z,27.88
2023-01-29T14:16:06.972Z,25.17
2023-01-29T14:21:31.183Z,26.77
2023-01-29T14:24:50.318Z,25.50
2023-01-29T14:27:28.313Z,26.15
2023-01-29T14:30:13.120Z,26.40
2023-01-29T14:33:08.443Z,27.05
2023-01-29T14:38:29.845Z,28.52
2023-01-29T14:45:21.535Z,28.92
2023-01-29T14:47:56.044Z,26.25
2023-01-29T14:50:35.294Z,26.25
2023-01-29T14:53:26.952Z,29.08
2023-01-29T14:56:12.656Z,26.98
2023-01-29T14:59:35.250Z,24.70
2023-01-29T15:02:44.030Z,26.88
2023-01-29T15:05:42.711Z,28.85
2023-01-29T15:12:45.940Z,25.77
2023-01-29T15:19:49.698Z,25.98
2023-01-29T15:30:09.711Z,28.77
2023-01-29T15:32:54.931Z,27.40
2023-01-29T15:39:07.359Z,24.85
2023-01-29T15:41:36.859Z,24.83
2023-01-29T15:44:22.816Z,27.25
2023-01-29T15:47:03.128Z,26.83
2023-01-29T15:49:40.018Z,25.55
2023-01-29T15:52:26.940Z,25.98
2023-01-29T15:55:07.760Z,27.55
2023-01-29T15:57:48.247Z,21.33
2023-01-29T16:03:39.297Z,23.50
2023-01-29T16:12:49.281Z,23.40
2023-01-29T16:15:53.811Z,23.40
2023-01-29T16:23:07.698Z,25.08
2023-01-29T16:25:43.789Z,21.92
2023-01-29T16:28:20.213Z,23.05
2023-01-29T16:34:48.692Z,22.20
2023-01-29T16:37:26.074Z,23.75
2023-01-29T16:43:48.071Z,21.65
2023-01-29T16:46:53.163Z,23.08
2023-01-29T16:49:39.546Z,21.67
2023-01-29T16:52:46.352Z,20.58
2023-01-29T16:55:30.688Z,22.95
2023-01-29T16:58:14.379Z,20.35
2023-01-29T17:01:22.802Z,21.85
2023-01-29T17:04:23.595Z,20.25
2023-01-29T17:13:40.072Z,24.15
2023-01-29T17:16:30.273Z,20.45
2023-01-29T17:19:01.958Z,22.65
2023-01-29T17:21:32.525Z,23.23
2023-01-29T17:24:05.504Z,23.40
2023-01-29T17:30:19.836Z,24.20
2023-01-29T17:33:29.784Z,19.98
2023-01-29T17:36:11.607Z,19.05
2023-01-29T17:39:01.891Z,22.88
2023-01-29T17:41:35.197Z,26.73
2023-01-29T17:44:09.720Z,27.58
2023-01-29T17:46:40.242Z,23.90
2023-01-29T17:49:22.450Z,21.42
2023-01-29T17:58:25.542Z,22.45
2023-01-29T18:01:04.918Z,21.30
2023-01-29T18:03:39.671Z,26.00
2023-01-29T18:09:04.234Z,22.73
2023-01-29T18:11:42.466Z,23.08
2023-01-29T18:14:18.977Z,22.05
2023-01-29T18:16:48.141Z,24.75
2023-01-29T18:19:34.664Z,19.02
2023-01-29T18:22:04.374Z,23.27
2023-01-29T18:24:34.714Z,18.85
2023-01-29T18:27:14.563Z,23.17
2023-01-29T18:32:43.125Z,20.27
2023-01-29T18:35:18.329Z,23.20
2023-01-29T18:37:49.669Z,23.35
2023-01-29T18:40:19.874Z,22.92
2023-01-29T18:46:07.718Z,22.45
2023-01-29T18:48:44.891Z,21.52
2023-01-29T18:51:14.627Z,23.88
2023-01-29T18:54:16.241Z,19.80
2023-01-29T18:57:13.071Z,22.70
2023-01-29T19:02:23.548Z,21.95
2023-01-29T19:04:57.728Z,23.58
2023-01-29T19:10:20.976Z,23.70
2023-01-29T19:16:15.213Z,22.77
2023-01-29T19:18:44.137Z,24.75
2023-01-29T19:21:18.186Z,23.83
2023-01-29T19:24:01.908Z,21.63
2023-01-29T19:26:56.240Z,23.10
2023-01-29T19:29:24.772Z,23.75
2023-01-29T19:31:54.942Z,23.08
2023-01-29T19:34:26.883Z,24.10
2023-01-29T19:37:05.112Z,25.85
2023-01-29T19:39:35.853Z,28.33
2023-01-29T19:44:58.755Z,22.73
2023-01-29T19:47:49.046Z,22.83
2023-01-29T19:50:52.048Z,27.02
2023-01-29T19:53:20.799Z,27.33
2023-01-29T19:56:05.464Z,27.35
2023-01-29T19:58:41.776Z,27.80
2023-01-29T20:01:33.540Z,23.35
2023-01-29T20:04:02.249Z,26.08
2023-01-29T20:06:37.180Z,26.17
2023-01-29T20:09:08.725Z,26.88
2023-01-29T20:11:53.860Z,26.80
2023-01-29T20:14:22.782Z,25.77
2023-01-29T20:16:52.475Z,27.08
2023-01-29T20:19:24.807Z,28.40
2023-01-29T20:21:54.122Z,23.45
2023-01-29T20:27:17.667Z,25.10
2023-01-29T20:29:53.594Z,30.27
2023-01-29T20:32:48.767Z,26.38
2023-01-29T20:35:16.429Z,26.67
2023-01-29T20:37:44.258Z,28.15
2023-01-29T20:42:55.037Z,25.15
2023-01-29T20:48:48.821Z,27.08
2023-01-29T20:51:20.737Z,28.25
2023-01-29T20:54:18.215Z,30.75
2023-01-29T20:56:47.756Z,26.42
2023-01-29T20:59:22.303Z,29.80
2023-01-29T21:02:00.011Z,26.75
2023-01-29T21:04:35.392Z,29.85
2023-01-29T21:07:03.240Z,32.08
2023-01-29T21:09:32.227Z,28.75
2023-01-29T21:14:52.170Z,27.25
2023-01-29T21:17:29.691Z,26.60
2023-01-29T21:20:00.714Z,26.40
2023-01-29T21:22:29.019Z,26.20
2023-01-29T21:25:00.325Z,28.92
2023-01-29T21:27:41.440Z,28.13
2023-01-29T21:30:11.567Z,25.02
2023-01-29T21:32:42.998Z,27.58
2023-01-29T21:35:12.671Z,27.33
2023-01-29T21:37:49.895Z,25.48
2023-01-29T21:43:07.831Z,28.65
2023-01-29T21:45:37.547Z,30.63
2023-01-29T21:48:25.227Z,27.25
2023-01-29T21:50:54.572Z,25.65
2023-01-29T21:53:22.871Z,29.77
2023-01-29T21:56:09.832Z,27.48
2023-01-29T21:58:49.894Z,26.73
2023-01-29T22:01:36.270Z,27.38
2023-01-29T22:04:10.333Z,30.77
2023-01-29T22:06:40.008Z,26.02
2023-01-29T22:09:13.718Z,27.27
2023-01-29T22:11:53.979Z,30.35
2023-01-29T22:14:24.770Z,28.23
2023-01-29T22:16:54.450Z,31.70
2023-01-29T22:22:28.400Z,29.80
2023-01-29T22:25:02.109Z,28.90
2023-01-29T22:27:36.806Z,29.33
2023-01-29T22:30:10.234Z,31.80
2023-01-29T22:35:48.777Z,31.52
2023-01-29T22:41:04.858Z,30.85
2023-01-29T22:43:43.606Z,30.05
2023-01-29T22:46:13.188Z,32.60
2023-01-29T22:48:43.373Z,32.45
2023-01-29T22:51:19.129Z,32.10
2023-01-29T22:53:59.832Z,33.78
2023-01-29T22:56:41.475Z,28.85
2023-01-29T22:59:14.752Z,27.60
2023-01-29T23:01:44.368Z,31.40
2023-01-29T23:04:30.667Z,33.53
2023-01-29T23:07:01.814Z,35.47
2023-01-29T23:09:31.640Z,31.67
2023-01-29T23:12:01.844Z,30.83
2023-01-29T23:14:31.705Z,29.40
2023-01-29T23:17:04.520Z,32.38
2023-01-29T23:19:40.100Z,33.50
2023-01-29T23:22:09.619Z,35.00
2023-01-29T23:24:39.613Z,32.88
2023-01-29T23:27:31.417Z,35.92
2023-01-29T23:30:03.520Z,33.40
2023-01-29T23:32:32.968Z,33.15
2023-01-29T23:35:02.796Z,33.65
2023-01-29T23:37:35.737Z,34.35
2023-01-29T23:40:10.963Z,35.85
2023-01-29T23:42:45.490Z,32.53
2023-01-29T23:45:14.259Z,37.50
2023-01-29T23:47:42.895Z,33.28
2023-01-29T23:50:11.412Z,36.58
2023-01-29T23:52:40.130Z,33.33
2023-01-29T23:55:09.506Z,31.38
2023-01-29T23:57:40.624Z,41.13
